Terminal Aerodrome Forecast
Issued by NWS

Home | Current Version | Previous Version | Text Only | Print | Product List | Glossary On
Versions: 1 2 3 4 5 6 7 8 9 10 11 12 13
000
FTUS45 KBOI 271140
TAFTWF
TAF
KTWF 271140Z 2712/2812 25011KT 6SM -SHRA BR BKN020 OVC030
     FM271600 26012G20KT P6SM VCSH SCT020 BKN035
     FM272100 27022G30KT P6SM SCT030 BKN050
     FM280300 24015G25KT P6SM FEW030
     FM280900 24015G25KT P6SM VCFG SCT007=

USA.gov is the U.S. government's official web portal to all federal, state and local government web resources and services.